EUS16TU EGPH-EBBR
Flight info
| Callsign | EUS16TU |
|---|---|
| Flight time | N/A |
| Altitude | 25000 |
| Route | TLA Y96 OTBUN/N0433F390 DCT ERKIT N110 DOLAS L603 LAMSO DCT TULIP L620 BASNO DCT ALFEN DCT ORCAV Z310 BATAK Z311 BEKEM |
| Aircraft | A320/M-SDE3FGHIRWY/LB1 |
Departure
| Time | 2026-04-24 22:57 |
|---|---|
| Airport | Edinburgh Airport (EGPH) |
Arrival
| Time | N/A |
|---|---|
| Airport | Brussels Airport (EBBR) |
| Time | Latitude | Longitude | Altitude | Speed | Heading |
|---|---|---|---|---|---|
| 2026-04-24 22:30 | 55.94854 | -3.36604 | 116 ft | 0 kts | 145° |
| 2026-04-24 22:30 | 55.94860 | -3.36611 | 116 ft | 0 kts | 145° |
| 2026-04-24 22:49 | 55.94861 | -3.36612 | 113 ft | 2 kts | 145° |
| 2026-04-24 22:49 | 55.94881 | -3.36636 | 112 ft | 4 kts | 145° |
| 2026-04-24 22:49 | 55.94902 | -3.36661 | 112 ft | 4 kts | 169° |
| 2026-04-24 22:49 | 55.94924 | -3.36654 | 115 ft | 4 kts | 224° |
| 2026-04-24 22:50 | 55.94933 | -3.36635 | 112 ft | 0 kts | 239° |
| 2026-04-24 22:52 | 55.94930 | -3.36644 | 113 ft | 5 kts | 239° |
| 2026-04-24 22:53 | 55.94900 | -3.36732 | 115 ft | 9 kts | 238° |
| 2026-04-24 22:53 | 55.94922 | -3.36836 | 116 ft | 12 kts | 313° |
| 2026-04-24 22:53 | 55.94899 | -3.36975 | 115 ft | 16 kts | 239° |
| 2026-04-24 22:53 | 55.94826 | -3.37192 | 114 ft | 22 kts | 238° |
| 2026-04-24 22:54 | 55.94744 | -3.37433 | 112 ft | 24 kts | 239° |
| 2026-04-24 22:54 | 55.94655 | -3.37695 | 115 ft | 26 kts | 239° |
| 2026-04-24 22:54 | 55.94560 | -3.37976 | 113 ft | 27 kts | 239° |
| 2026-04-24 22:54 | 55.94458 | -3.38276 | 113 ft | 29 kts | 239° |
| 2026-04-24 22:55 | 55.94363 | -3.38558 | 114 ft | 26 kts | 239° |
| 2026-04-24 22:55 | 55.94291 | -3.38766 | 114 ft | 16 kts | 238° |
| 2026-04-24 22:55 | 55.94319 | -3.38903 | 114 ft | 13 kts | 327° |
| 2026-04-24 22:55 | 55.94405 | -3.38972 | 114 ft | 14 kts | 11° |
| 2026-04-24 22:56 | 55.94447 | -3.38883 | 114 ft | 16 kts | 60° |
| 2026-04-24 22:56 | 55.94587 | -3.38467 | 113 ft | 76 kts | 59° |
| 2026-04-24 22:56 | 55.94977 | -3.37316 | 113 ft | 139 kts | 59° |
| 2026-04-24 22:56 | 55.95541 | -3.35640 | 382 ft | 166 kts | 59° |
| 2026-04-24 22:57 | 55.96255 | -3.34002 | 1132 ft | 167 kts | 43° |
| 2026-04-24 22:57 | 55.97106 | -3.32614 | 1934 ft | 167 kts | 42° |
| 2026-04-24 22:57 | 55.98004 | -3.31149 | 2395 ft | 186 kts | 41° |
| 2026-04-24 22:57 | 55.99027 | -3.29485 | 2709 ft | 208 kts | 41° |
| 2026-04-24 22:58 | 56.00102 | -3.27738 | 2964 ft | 211 kts | 41° |
| 2026-04-24 22:58 | 56.01227 | -3.25911 | 3230 ft | 227 kts | 41° |
| 2026-04-24 22:58 | 56.02415 | -3.23986 | 3498 ft | 231 kts | 41° |
| 2026-04-24 22:58 | 56.03606 | -3.22051 | 3875 ft | 233 kts | 43° |
| 2026-04-24 22:59 | 56.04542 | -3.19640 | 4260 ft | 249 kts | 69° |
| 2026-04-24 22:59 | 56.04727 | -3.16463 | 4653 ft | 266 kts | 101° |
| 2026-04-24 22:59 | 56.02802 | -3.10799 | 5413 ft | 271 kts | 127° |
| 2026-04-24 23:00 | 56.01631 | -3.08078 | 5857 ft | 285 kts | 127° |
| 2026-04-24 23:00 | 56.00438 | -3.05307 | 6953 ft | 282 kts | 127° |
| 2026-04-24 23:00 | 55.99218 | -3.02539 | 7868 ft | 285 kts | 133° |
| 2026-04-24 23:00 | 55.97641 | -3.00365 | 8745 ft | 290 kts | 155° |
| 2026-04-24 23:01 | 55.95681 | -2.99606 | 9612 ft | 292 kts | 183° |
| 2026-04-24 23:01 | 55.93670 | -3.00220 | 10459 ft | 297 kts | 194° |
| 2026-04-24 23:01 | 55.91537 | -3.00405 | 10769 ft | 323 kts | 168° |
| 2026-04-24 23:01 | 55.89473 | -2.98762 | 11277 ft | 336 kts | 147° |
| 2026-04-24 23:02 | 55.87531 | -2.96274 | 12032 ft | 342 kts | 141° |
| 2026-04-24 23:02 | 55.85665 | -2.93593 | 12823 ft | 347 kts | 140° |
| 2026-04-24 23:02 | 55.83801 | -2.90920 | 13590 ft | 352 kts | 141° |
| 2026-04-24 23:02 | 55.81823 | -2.88222 | 14332 ft | 357 kts | 143° |
| 2026-04-24 23:03 | 55.79811 | -2.85632 | 15005 ft | 361 kts | 144° |
| 2026-04-24 23:03 | 55.77761 | -2.83101 | 15710 ft | 364 kts | 146° |
| 2026-04-24 23:03 | 55.75652 | -2.80565 | 16414 ft | 368 kts | 147° |
| 2026-04-24 23:03 | 55.73516 | -2.78026 | 17091 ft | 371 kts | 147° |
| 2026-04-24 23:04 | 55.71362 | -2.75471 | 17803 ft | 374 kts | 147° |
| 2026-04-24 23:04 | 55.69191 | -2.72891 | 18493 ft | 377 kts | 147° |
| 2026-04-24 23:04 | 55.67007 | -2.70291 | 19080 ft | 381 kts | 147° |
| 2026-04-24 23:04 | 55.64798 | -2.67648 | 19676 ft | 384 kts | 147° |
| 2026-04-24 23:05 | 55.62576 | -2.64989 | 20262 ft | 387 kts | 147° |
| 2026-04-24 23:05 | 55.60337 | -2.62306 | 20856 ft | 391 kts | 147° |
| 2026-04-24 23:05 | 55.58077 | -2.59599 | 21445 ft | 394 kts | 147° |
| 2026-04-24 23:05 | 55.55800 | -2.56881 | 22026 ft | 397 kts | 147° |
| 2026-04-24 23:06 | 55.53500 | -2.54140 | 22627 ft | 401 kts | 147° |
| 2026-04-24 23:06 | 55.51177 | -2.51376 | 23202 ft | 404 kts | 147° |
| 2026-04-24 23:06 | 55.48840 | -2.48601 | 23784 ft | 407 kts | 146° |
| 2026-04-24 23:06 | 55.46488 | -2.45810 | 24307 ft | 409 kts | 146° |
| 2026-04-24 23:07 | 55.44123 | -2.43005 | 24785 ft | 411 kts | 147° |
| 2026-04-24 23:07 | 55.41744 | -2.40186 | 25237 ft | 414 kts | 147° |
| 2026-04-24 23:07 | 55.39343 | -2.37347 | 25674 ft | 417 kts | 147° |
| 2026-04-24 23:07 | 55.36920 | -2.34493 | 26113 ft | 420 kts | 147° |
| 2026-04-24 23:08 | 55.34488 | -2.31638 | 26537 ft | 423 kts | 147° |
| 2026-04-24 23:08 | 55.32034 | -2.28760 | 26949 ft | 426 kts | 147° |
| 2026-04-24 23:08 | 55.29557 | -2.25855 | 27352 ft | 428 kts | 147° |
| 2026-04-24 23:08 | 55.27076 | -2.22948 | 27749 ft | 431 kts | 147° |
| 2026-04-24 23:09 | 55.24573 | -2.20017 | 28145 ft | 434 kts | 147° |
| 2026-04-24 23:09 | 55.22046 | -2.17070 | 28512 ft | 437 kts | 147° |
| 2026-04-24 23:09 | 55.19504 | -2.14113 | 28884 ft | 440 kts | 147° |
| 2026-04-24 23:09 | 55.16949 | -2.11138 | 29254 ft | 443 kts | 147° |
| 2026-04-24 23:10 | 55.14374 | -2.08139 | 29616 ft | 446 kts | 147° |
| 2026-04-24 23:10 | 55.11779 | -2.05122 | 29962 ft | 449 kts | 147° |
| 2026-04-24 23:10 | 55.09173 | -2.02102 | 30311 ft | 451 kts | 147° |
| 2026-04-24 23:10 | 55.06545 | -1.99065 | 30602 ft | 454 kts | 147° |
| 2026-04-24 23:11 | 55.03906 | -1.96017 | 30896 ft | 456 kts | 147° |
| 2026-04-24 23:11 | 55.01256 | -1.92959 | 31186 ft | 458 kts | 147° |
| 2026-04-24 23:11 | 54.98592 | -1.89889 | 31459 ft | 460 kts | 147° |
| 2026-04-24 23:11 | 54.95914 | -1.86814 | 31698 ft | 462 kts | 147° |
| 2026-04-24 23:12 | 54.93230 | -1.83735 | 32000 ft | 463 kts | 147° |
| 2026-04-24 23:12 | 54.90546 | -1.80661 | 32388 ft | 461 kts | 147° |
| 2026-04-24 23:12 | 54.87872 | -1.77600 | 32767 ft | 461 kts | 147° |
| 2026-04-24 23:12 | 54.85199 | -1.74543 | 33147 ft | 460 kts | 147° |
| 2026-04-24 23:13 | 54.82526 | -1.71486 | 33536 ft | 459 kts | 147° |
| 2026-04-24 23:13 | 54.79865 | -1.68452 | 33912 ft | 458 kts | 147° |
| 2026-04-24 23:13 | 54.77202 | -1.65425 | 34285 ft | 457 kts | 147° |
| 2026-04-24 23:13 | 54.74542 | -1.62407 | 34608 ft | 457 kts | 147° |
| 2026-04-24 23:14 | 54.71879 | -1.59397 | 34888 ft | 457 kts | 147° |
| 2026-04-24 23:14 | 54.69219 | -1.56397 | 35146 ft | 457 kts | 147° |
| 2026-04-24 23:14 | 54.66555 | -1.53394 | 35428 ft | 457 kts | 147° |
| 2026-04-24 23:14 | 54.63889 | -1.50391 | 35711 ft | 457 kts | 148° |
| 2026-04-24 23:15 | 54.61231 | -1.47399 | 35988 ft | 456 kts | 148° |
| 2026-04-24 23:15 | 54.58575 | -1.44414 | 36266 ft | 455 kts | 148° |
| 2026-04-24 23:15 | 54.55919 | -1.41432 | 36539 ft | 455 kts | 148° |
| 2026-04-24 23:15 | 54.53273 | -1.38464 | 36806 ft | 454 kts | 148° |
| 2026-04-24 23:16 | 54.50622 | -1.35497 | 37063 ft | 454 kts | 148° |
| 2026-04-24 23:16 | 54.47980 | -1.32546 | 37301 ft | 453 kts | 148° |
| 2026-04-24 23:16 | 54.45339 | -1.29598 | 37561 ft | 452 kts | 148° |
| 2026-04-24 23:16 | 54.42711 | -1.26668 | 37813 ft | 452 kts | 148° |
| 2026-04-24 23:17 | 54.40068 | -1.23731 | 38056 ft | 451 kts | 148° |
| 2026-04-24 23:17 | 54.37436 | -1.20814 | 38306 ft | 450 kts | 148° |
| 2026-04-24 23:17 | 54.34806 | -1.17902 | 38559 ft | 450 kts | 148° |
| 2026-04-24 23:17 | 54.32180 | -1.14996 | 38793 ft | 449 kts | 149° |
| 2026-04-24 23:18 | 54.29553 | -1.12096 | 38997 ft | 449 kts | 149° |
| 2026-04-24 23:18 | 54.26935 | -1.09209 | 39170 ft | 448 kts | 149° |
| 2026-04-24 23:18 | 54.24310 | -1.06314 | 39252 ft | 449 kts | 149° |
| 2026-04-24 23:19 | 54.19052 | -1.00531 | 39273 ft | 451 kts | 149° |
| 2026-04-24 23:19 | 54.13769 | -0.94737 | 39268 ft | 451 kts | 149° |